createdAt,value
2023-03-22T00:00:21.038Z,87.82
2023-03-22T00:03:24.930Z,87.58
2023-03-22T00:09:29.418Z,86.52
2023-03-22T00:12:32.096Z,87.23
2023-03-22T00:15:35.134Z,86.37
2023-03-22T00:18:37.948Z,86.47
2023-03-22T00:21:40.667Z,86.62
2023-03-22T00:24:43.521Z,85.30
2023-03-22T00:27:46.205Z,85.54
2023-03-22T00:34:02.030Z,87.92
2023-03-22T00:37:04.987Z,88.24
2023-03-22T00:40:11.146Z,87.55
2023-03-22T00:43:14.429Z,89.48
2023-03-22T00:46:19.553Z,89.85
2023-03-22T00:49:22.369Z,88.98
2023-03-22T00:52:25.517Z,88.03
2023-03-22T00:55:28.200Z,89.91
2023-03-22T00:58:31.047Z,90.11
2023-03-22T01:01:33.733Z,89.62
2023-03-22T01:04:36.739Z,88.89
2023-03-22T01:07:41.779Z,89.60
2023-03-22T01:10:45.036Z,90.92
2023-03-22T01:13:48.160Z,91.38
2023-03-22T01:19:52.725Z,90.60
2023-03-22T01:22:55.655Z,89.52
2023-03-22T01:25:58.372Z,89.34
2023-03-22T01:29:01.110Z,91.14
2023-03-22T01:32:04.399Z,89.40
2023-03-22T01:35:07.482Z,89.44
2023-03-22T01:38:10.327Z,88.95
2023-03-22T01:41:12.977Z,91.45
2023-03-22T01:47:19.877Z,90.04
2023-03-22T01:50:24.624Z,90.61
2023-03-22T01:53:27.503Z,89.77
2023-03-22T01:56:33.293Z,90.00
2023-03-22T01:59:36.831Z,90.96
2023-03-22T02:02:39.743Z,90.17
2023-03-22T02:08:43.967Z,90.66
2023-03-22T02:11:51.538Z,90.41
2023-03-22T02:15:05.422Z,91.55
2023-03-22T02:18:45.803Z,91.05
2023-03-22T02:22:10.030Z,91.99
2023-03-22T02:25:42.067Z,91.26
2023-03-22T02:29:03.767Z,90.76
2023-03-22T02:32:25.657Z,90.91
2023-03-22T02:35:33.918Z,91.88
2023-03-22T02:39:10.585Z,93.57
2023-03-22T02:42:23.567Z,93.01
2023-03-22T02:45:35.223Z,91.97
2023-03-22T02:48:56.345Z,93.60
2023-03-22T02:52:04.045Z,91.47
2023-03-22T02:58:35.172Z,91.80
2023-03-22T03:01:41.433Z,93.97
2023-03-22T03:04:47.163Z,92.73
2023-03-22T03:07:56.252Z,94.23
2023-03-22T03:14:00.577Z,92.27
2023-03-22T03:17:37.222Z,93.94
2023-03-22T03:21:08.926Z,94.15
2023-03-22T03:24:27.746Z,93.23
2023-03-22T03:27:40.439Z,91.87
2023-03-22T03:34:00.488Z,93.55
2023-03-22T03:37:12.369Z,93.33
2023-03-22T03:40:22.229Z,94.27
2023-03-22T03:43:25.924Z,94.30
2023-03-22T03:46:29.540Z,92.55
2023-03-22T03:49:32.639Z,94.27
2023-03-22T03:52:35.909Z,95.87
2023-03-22T03:55:38.704Z,96.47
2023-03-22T03:58:41.735Z,97.60
2023-03-22T04:01:52.832Z,95.33
2023-03-22T04:04:55.856Z,94.77
2023-03-22T04:07:58.537Z,95.45
2023-03-22T04:14:06.209Z,94.32
2023-03-22T04:20:12.950Z,93.89
2023-03-22T04:23:16.368Z,93.57
2023-03-22T04:26:19.085Z,93.60
2023-03-22T04:29:23.114Z,94.00
2023-03-22T04:32:25.794Z,95.39
2023-03-22T04:35:28.371Z,94.07
2023-03-22T04:38:31.192Z,95.52
2023-03-22T04:41:34.978Z,94.52
2023-03-22T04:44:38.418Z,93.92
2023-03-22T04:47:41.261Z,93.45
2023-03-22T04:50:44.047Z,93.36
2023-03-22T04:53:47.235Z,93.73
2023-03-22T04:56:50.751Z,93.39
2023-03-22T04:59:53.492Z,93.80
2023-03-22T05:02:57.422Z,95.35
2023-03-22T05:06:02.105Z,94.71
2023-03-22T05:09:04.953Z,93.79
2023-03-22T05:12:07.890Z,93.08
2023-03-22T05:15:10.761Z,92.51
2023-03-22T05:18:14.601Z,92.39
2023-03-22T05:24:24.197Z,91.69
2023-03-22T05:27:31.858Z,91.30
2023-03-22T05:30:34.548Z,90.54
2023-03-22T05:33:37.307Z,91.79
2023-03-22T05:36:40.004Z,90.69
2023-03-22T05:39:42.807Z,90.36
2023-03-22T05:42:45.943Z,89.23
2023-03-22T05:48:51.488Z,89.21
2023-03-22T05:51:54.688Z,88.20
2023-03-22T06:01:09.352Z,88.95
2023-03-22T06:04:11.982Z,89.88
2023-03-22T06:10:17.258Z,90.54
2023-03-22T06:13:20.746Z,90.63
2023-03-22T06:16:23.600Z,89.89
2023-03-22T06:19:27.051Z,88.98
2023-03-22T06:22:31.922Z,88.58
2023-03-22T06:25:34.722Z,88.15
2023-03-22T06:28:38.168Z,88.92
2023-03-22T06:31:41.185Z,88.80
2023-03-22T06:34:44.281Z,88.98
2023-03-22T06:37:47.131Z,87.77
2023-03-22T06:40:49.855Z,85.73
2023-03-22T06:43:52.732Z,84.91
2023-03-22T06:46:55.654Z,83.23
2023-03-22T06:49:58.479Z,83.46
2023-03-22T06:53:01.444Z,84.58
2023-03-22T06:56:04.735Z,84.00
2023-03-22T06:59:07.528Z,83.04
2023-03-22T07:02:14.048Z,83.03
2023-03-22T07:05:16.745Z,82.40
2023-03-22T07:08:19.715Z,82.51
2023-03-22T07:11:22.748Z,81.75
2023-03-22T07:14:30.429Z,79.99
2023-03-22T07:17:33.533Z,79.47
2023-03-22T07:20:41.735Z,78.44
2023-03-22T07:23:44.668Z,77.53
2023-03-22T07:26:47.387Z,77.51
2023-03-22T07:29:50.099Z,75.97
2023-03-22T07:32:53.167Z,76.83
2023-03-22T07:35:56.099Z,75.78
2023-03-22T07:38:59.223Z,75.75
2023-03-22T07:42:03.725Z,75.51
2023-03-22T07:45:07.092Z,75.67
2023-03-22T07:48:12.110Z,75.24
2023-03-22T07:51:14.760Z,74.78
2023-03-22T07:54:32.082Z,75.53
2023-03-22T07:57:36.077Z,75.81
2023-03-22T08:00:39.083Z,74.94
2023-03-22T08:03:42.020Z,74.82
2023-03-22T08:06:46.685Z,74.33
2023-03-22T08:09:49.741Z,72.66
2023-03-22T08:12:52.402Z,73.54
2023-03-22T08:15:55.218Z,72.36
2023-03-22T08:18:58.937Z,71.04
2023-03-22T08:22:03.931Z,68.93
2023-03-22T08:25:07.501Z,66.74
2023-03-22T08:28:10.920Z,66.74
2023-03-22T08:31:16.092Z,63.83
2023-03-22T08:34:19.217Z,64.07
2023-03-22T08:37:21.961Z,63.14
2023-03-22T08:40:24.555Z,59.69
2023-03-22T08:43:28.233Z,59.99
2023-03-22T08:46:31.256Z,60.68
2023-03-22T08:49:34.826Z,59.04
2023-03-22T08:52:37.838Z,57.87
2023-03-22T08:55:46.632Z,56.96
2023-03-22T08:58:49.605Z,56.97
2023-03-22T09:01:52.475Z,57.59
2023-03-22T09:04:56.367Z,57.17
2023-03-22T09:08:06.075Z,56.31
2023-03-22T09:11:10.629Z,56.62
2023-03-22T09:14:13.524Z,56.05
2023-03-22T09:17:21.246Z,54.54
2023-03-22T09:20:31.969Z,54.42
2023-03-22T09:23:37.259Z,53.63
2023-03-22T09:26:40.128Z,53.37
2023-03-22T09:29:43.011Z,51.51
2023-03-22T09:32:46.208Z,50.41
2023-03-22T09:35:49.372Z,50.71
2023-03-22T09:38:52.348Z,49.58
2023-03-22T09:41:57.984Z,49.40
2023-03-22T09:45:01.982Z,47.95
2023-03-22T09:48:27.218Z,49.57
2023-03-22T09:51:45.219Z,48.99
2023-03-22T09:54:48.257Z,48.50
2023-03-22T09:57:58.956Z,49.29
2023-03-22T10:01:46.279Z,47.96
2023-03-22T10:05:18.343Z,46.26
2023-03-22T10:08:29.771Z,47.24
2023-03-22T10:11:43.815Z,45.51
2023-03-22T10:15:09.327Z,46.52
2023-03-22T10:18:20.911Z,45.84
2023-03-22T10:21:23.732Z,44.78
2023-03-22T10:24:30.615Z,44.85
2023-03-22T10:27:34.653Z,43.81
2023-03-22T10:30:38.830Z,44.72
2023-03-22T10:33:52.954Z,45.05
2023-03-22T10:36:56.257Z,44.55
2023-03-22T10:40:01.242Z,43.57
2023-03-22T10:43:18.390Z,43.31
2023-03-22T10:46:24.819Z,41.80
2023-03-22T10:49:36.283Z,42.07
2023-03-22T10:52:51.622Z,42.99
2023-03-22T10:55:54.756Z,42.53
2023-03-22T10:58:58.471Z,41.82
2023-03-22T11:02:01.978Z,42.83
2023-03-22T11:05:07.376Z,42.65
2023-03-22T11:08:15.119Z,41.09
2023-03-22T11:11:26.348Z,39.88
2023-03-22T11:14:38.242Z,41.12
2023-03-22T11:17:42.750Z,40.49
2023-03-22T11:21:01.587Z,41.14
2023-03-22T11:24:06.055Z,41.08
2023-03-22T11:27:21.598Z,42.47
2023-03-22T11:30:26.273Z,42.94
2023-03-22T11:33:29.312Z,42.75
2023-03-22T11:36:33.237Z,42.38
2023-03-22T11:39:36.163Z,43.25
2023-03-22T11:42:39.551Z,43.99
2023-03-22T11:45:47.327Z,43.51
2023-03-22T11:48:52.379Z,44.15
2023-03-22T11:51:56.576Z,42.46
2023-03-22T11:55:00.436Z,42.73
2023-03-22T11:58:06.277Z,41.92
2023-03-22T12:01:19.924Z,40.16
2023-03-22T12:04:28.088Z,37.78
2023-03-22T12:07:32.283Z,37.18
2023-03-22T12:10:48.344Z,38.59
2023-03-22T12:13:58.855Z,37.21
2023-03-22T12:17:24.538Z,36.19
2023-03-22T12:20:43.017Z,36.11
2023-03-22T12:23:46.078Z,36.77
2023-03-22T12:26:49.514Z,37.25
2023-03-22T12:30:00.168Z,37.63
2023-03-22T12:33:17.302Z,36.90
2023-03-22T12:36:24.170Z,37.50
2023-03-22T12:39:31.647Z,36.80
2023-03-22T12:42:58.988Z,35.01
2023-03-22T12:46:05.070Z,34.65
2023-03-22T12:49:36.070Z,33.93
2023-03-22T12:52:50.941Z,32.82
2023-03-22T12:55:55.754Z,31.89
2023-03-22T12:59:03.988Z,33.30
2023-03-22T13:02:15.078Z,34.49
2023-03-22T13:05:19.307Z,33.92
2023-03-22T13:08:23.100Z,32.98
2023-03-22T13:11:26.483Z,33.14
2023-03-22T13:14:49.747Z,31.42
2023-03-22T13:17:57.049Z,31.40
2023-03-22T13:21:19.308Z,30.93
2023-03-22T13:24:23.382Z,31.73
2023-03-22T13:27:38.091Z,31.80
2023-03-22T13:30:58.215Z,31.50
2023-03-22T13:34:04.276Z,34.37
2023-03-22T13:37:35.166Z,36.08
2023-03-22T13:40:44.276Z,36.72
2023-03-22T13:43:50.449Z,33.82
2023-03-22T13:46:54.110Z,33.20
2023-03-22T13:50:24.321Z,31.76
2023-03-22T13:53:31.119Z,32.64
2023-03-22T13:57:01.362Z,35.65
2023-03-22T14:00:15.558Z,36.26
2023-03-22T14:03:30.438Z,37.27
2023-03-22T14:06:39.327Z,36.21
2023-03-22T14:09:54.816Z,34.34
2023-03-22T14:13:06.357Z,32.07
2023-03-22T14:16:14.283Z,30.14
2023-03-22T14:19:21.819Z,32.61
